sensor_id;sensor_type;location;lat;lon;timestamp;temperature;humidity
39347;DHT22;26262;49.836;6.632;2024-01-07T00:00:47;4.90;99.90
39347;DHT22;26262;49.836;6.632;2024-01-07T00:03:13;4.90;99.90
39347;DHT22;26262;49.836;6.632;2024-01-07T00:05:38;4.80;99.90
39347;DHT22;26262;49.836;6.632;2024-01-07T00:08:04;4.80;99.90
39347;DHT22;26262;49.836;6.632;2024-01-07T00:10:29;4.50;99.90
39347;DHT22;26262;49.836;6.632;2024-01-07T00:12:54;4.50;99.90
39347;DHT22;26262;49.836;6.632;2024-01-07T00:15:20;4.60;99.90
39347;DHT22;26262;49.836;6.632;2024-01-07T00:17:45;4.40;99.90
39347;DHT22;26262;49.836;6.632;2024-01-07T00:20:11;4.50;99.90
39347;DHT22;26262;49.836;6.632;2024-01-07T00:22:36;4.60;99.90
39347;DHT22;26262;49.836;6.632;2024-01-07T00:25:02;4.60;99.90
39347;DHT22;26262;49.836;6.632;2024-01-07T00:27:27;4.40;99.90
39347;DHT22;26262;49.836;6.632;2024-01-07T00:29:52;4.60;99.90
39347;DHT22;26262;49.836;6.632;2024-01-07T00:32:18;4.60;99.90
39347;DHT22;26262;49.836;6.632;2024-01-07T00:34:44;4.70;99.90
39347;DHT22;26262;49.836;6.632;2024-01-07T00:37:09;4.60;99.90
39347;DHT22;26262;49.836;6.632;2024-01-07T00:39:34;4.60;99.90
39347;DHT22;26262;49.836;6.632;2024-01-07T00:42:00;4.50;99.90
39347;DHT22;26262;49.836;6.632;2024-01-07T00:44:25;4.30;99.90
39347;DHT22;26262;49.836;6.632;2024-01-07T00:46:51;4.40;99.90
39347;DHT22;26262;49.836;6.632;2024-01-07T00:49:16;4.40;99.90
39347;DHT22;26262;49.836;6.632;2024-01-07T00:51:42;4.50;99.90
39347;DHT22;26262;49.836;6.632;2024-01-07T00:54:07;4.50;99.90
39347;DHT22;26262;49.836;6.632;2024-01-07T00:56:33;4.50;99.90
39347;DHT22;26262;49.836;6.632;2024-01-07T00:58:58;4.40;99.90
39347;DHT22;26262;49.836;6.632;2024-01-07T01:01:24;4.40;99.90
39347;DHT22;26262;49.836;6.632;2024-01-07T01:03:49;4.60;99.90
39347;DHT22;26262;49.836;6.632;2024-01-07T01:06:15;4.60;99.90
39347;DHT22;26262;49.836;6.632;2024-01-07T01:08:40;4.50;99.90
39347;DHT22;26262;49.836;6.632;2024-01-07T01:11:08;4.20;99.90
39347;DHT22;26262;49.836;6.632;2024-01-07T01:13:34;4.20;99.90
39347;DHT22;26262;49.836;6.632;2024-01-07T01:15:59;4.10;99.90
39347;DHT22;26262;49.836;6.632;2024-01-07T01:18:24;4.30;99.90
39347;DHT22;26262;49.836;6.632;2024-01-07T01:20:50;4.40;99.90
39347;DHT22;26262;49.836;6.632;2024-01-07T01:23:15;4.40;99.90
39347;DHT22;26262;49.836;6.632;2024-01-07T01:25:41;4.30;99.90
39347;DHT22;26262;49.836;6.632;2024-01-07T01:28:06;4.40;99.90
39347;DHT22;26262;49.836;6.632;2024-01-07T01:30:32;4.40;99.90
39347;DHT22;26262;49.836;6.632;2024-01-07T01:32:57;4.50;99.90
39347;DHT22;26262;49.836;6.632;2024-01-07T01:35:22;4.50;99.90
39347;DHT22;26262;49.836;6.632;2024-01-07T01:37:48;4.50;99.90
39347;DHT22;26262;49.836;6.632;2024-01-07T01:40:13;4.40;99.90
39347;DHT22;26262;49.836;6.632;2024-01-07T01:42:42;4.50;99.90
39347;DHT22;26262;49.836;6.632;2024-01-07T01:45:08;4.50;99.90
39347;DHT22;26262;49.836;6.632;2024-01-07T01:47:33;4.50;99.90
39347;DHT22;26262;49.836;6.632;2024-01-07T01:49:59;4.40;99.90
39347;DHT22;26262;49.836;6.632;2024-01-07T01:52:24;4.40;99.90
39347;DHT22;26262;49.836;6.632;2024-01-07T01:54:50;4.20;99.90
39347;DHT22;26262;49.836;6.632;2024-01-07T01:57:16;4.00;99.90
39347;DHT22;26262;49.836;6.632;2024-01-07T01:59:42;4.10;99.90
39347;DHT22;26262;49.836;6.632;2024-01-07T02:02:08;4.20;99.90
39347;DHT22;26262;49.836;6.632;2024-01-07T02:04:33;4.10;99.90
39347;DHT22;26262;49.836;6.632;2024-01-07T02:06:59;4.10;99.90
39347;DHT22;26262;49.836;6.632;2024-01-07T02:09:24;4.20;99.90
39347;DHT22;26262;49.836;6.632;2024-01-07T02:14:27;4.20;99.90
39347;DHT22;26262;49.836;6.632;2024-01-07T02:16:53;4.20;99.90
39347;DHT22;26262;49.836;6.632;2024-01-07T02:19:18;4.10;99.90
39347;DHT22;26262;49.836;6.632;2024-01-07T02:21:45;4.20;99.90
39347;DHT22;26262;49.836;6.632;2024-01-07T02:24:17;4.30;99.90
39347;DHT22;26262;49.836;6.632;2024-01-07T02:26:42;3.90;99.90
39347;DHT22;26262;49.836;6.632;2024-01-07T02:29:08;3.80;99.90
39347;DHT22;26262;49.836;6.632;2024-01-07T02:31:33;4.00;99.90
39347;DHT22;26262;49.836;6.632;2024-01-07T02:33:59;4.00;99.90
39347;DHT22;26262;49.836;6.632;2024-01-07T02:36:24;4.10;99.90
39347;DHT22;26262;49.836;6.632;2024-01-07T02:38:50;4.20;99.90
39347;DHT22;26262;49.836;6.632;2024-01-07T02:41:15;4.10;99.90
39347;DHT22;26262;49.836;6.632;2024-01-07T02:43:40;4.20;99.90
39347;DHT22;26262;49.836;6.632;2024-01-07T02:46:06;4.20;99.90
39347;DHT22;26262;49.836;6.632;2024-01-07T02:48:32;4.10;99.90
39347;DHT22;26262;49.836;6.632;2024-01-07T02:50:57;4.20;99.90
39347;DHT22;26262;49.836;6.632;2024-01-07T02:53:23;4.20;99.90
39347;DHT22;26262;49.836;6.632;2024-01-07T02:55:48;4.20;99.90
39347;DHT22;26262;49.836;6.632;2024-01-07T02:58:13;4.30;99.90
39347;DHT22;26262;49.836;6.632;2024-01-07T03:00:39;4.20;99.90
39347;DHT22;26262;49.836;6.632;2024-01-07T03:03:04;3.90;99.90
39347;DHT22;26262;49.836;6.632;2024-01-07T03:05:30;4.10;99.90
39347;DHT22;26262;49.836;6.632;2024-01-07T03:07:58;4.20;99.90
39347;DHT22;26262;49.836;6.632;2024-01-07T03:10:24;4.30;99.90
39347;DHT22;26262;49.836;6.632;2024-01-07T03:12:49;4.40;99.90
39347;DHT22;26262;49.836;6.632;2024-01-07T03:15:15;4.40;99.90
39347;DHT22;26262;49.836;6.632;2024-01-07T03:17:40;4.30;99.90
39347;DHT22;26262;49.836;6.632;2024-01-07T03:20:06;4.10;99.90
39347;DHT22;26262;49.836;6.632;2024-01-07T03:22:31;4.10;99.90
39347;DHT22;26262;49.836;6.632;2024-01-07T03:24:57;4.10;99.90
39347;DHT22;26262;49.836;6.632;2024-01-07T03:27:22;4.30;99.90
39347;DHT22;26262;49.836;6.632;2024-01-07T03:29:48;4.40;99.90
39347;DHT22;26262;49.836;6.632;2024-01-07T03:32:13;4.10;99.90
39347;DHT22;26262;49.836;6.632;2024-01-07T03:34:39;4.10;99.90
39347;DHT22;26262;49.836;6.632;2024-01-07T03:37:05;4.10;99.90
39347;DHT22;26262;49.836;6.632;2024-01-07T03:39:32;4.10;99.90
39347;DHT22;26262;49.836;6.632;2024-01-07T03:41:57;4.20;99.90
39347;DHT22;26262;49.836;6.632;2024-01-07T03:44:23;4.20;99.90
39347;DHT22;26262;49.836;6.632;2024-01-07T03:46:48;4.30;99.90
39347;DHT22;26262;49.836;6.632;2024-01-07T03:49:14;4.30;99.90
39347;DHT22;26262;49.836;6.632;2024-01-07T03:51:39;4.30;99.90
39347;DHT22;26262;49.836;6.632;2024-01-07T03:54:05;4.30;99.90
39347;DHT22;26262;49.836;6.632;2024-01-07T03:56:30;4.30;99.90
39347;DHT22;26262;49.836;6.632;2024-01-07T03:58:56;4.10;99.90
39347;DHT22;26262;49.836;6.632;2024-01-07T04:01:21;4.10;99.90
39347;DHT22;26262;49.836;6.632;2024-01-07T04:03:47;4.20;99.90
39347;DHT22;26262;49.836;6.632;2024-01-07T04:06:12;4.30;99.90
39347;DHT22;26262;49.836;6.632;2024-01-07T04:08:37;4.20;99.90
39347;DHT22;26262;49.836;6.632;2024-01-07T04:11:03;4.10;99.90
39347;DHT22;26262;49.836;6.632;2024-01-07T04:13:28;3.70;99.90
39347;DHT22;26262;49.836;6.632;2024-01-07T04:15:54;3.80;99.90
39347;DHT22;26262;49.836;6.632;2024-01-07T04:18:19;3.70;99.90
39347;DHT22;26262;49.836;6.632;2024-01-07T04:20:45;3.90;99.90
39347;DHT22;26262;49.836;6.632;2024-01-07T04:23:10;4.00;99.90
39347;DHT22;26262;49.836;6.632;2024-01-07T04:25:35;4.00;99.90
39347;DHT22;26262;49.836;6.632;2024-01-07T04:28:01;4.10;99.90
39347;DHT22;26262;49.836;6.632;2024-01-07T04:30:26;4.20;99.90
39347;DHT22;26262;49.836;6.632;2024-01-07T04:32:52;4.30;99.90
39347;DHT22;26262;49.836;6.632;2024-01-07T04:35:17;4.40;99.90
39347;DHT22;26262;49.836;6.632;2024-01-07T04:37:42;4.30;99.90
39347;DHT22;26262;49.836;6.632;2024-01-07T04:40:08;4.40;99.90
39347;DHT22;26262;49.836;6.632;2024-01-07T04:42:34;4.30;99.90
39347;DHT22;26262;49.836;6.632;2024-01-07T04:44:59;4.30;99.90
39347;DHT22;26262;49.836;6.632;2024-01-07T04:47:31;4.30;99.90
39347;DHT22;26262;49.836;6.632;2024-01-07T04:49:59;4.20;99.90
39347;DHT22;26262;49.836;6.632;2024-01-07T04:52:24;4.20;99.90
39347;DHT22;26262;49.836;6.632;2024-01-07T04:54:51;4.30;99.90
39347;DHT22;26262;49.836;6.632;2024-01-07T04:57:16;4.40;99.90
39347;DHT22;26262;49.836;6.632;2024-01-07T04:59:42;4.20;99.90
39347;DHT22;26262;49.836;6.632;2024-01-07T05:02:07;4.00;99.90
39347;DHT22;26262;49.836;6.632;2024-01-07T05:04:33;4.10;99.90
39347;DHT22;26262;49.836;6.632;2024-01-07T05:06:59;4.20;99.90
39347;DHT22;26262;49.836;6.632;2024-01-07T05:09:24;4.40;99.90
39347;DHT22;26262;49.836;6.632;2024-01-07T05:11:50;4.30;99.90
39347;DHT22;26262;49.836;6.632;2024-01-07T05:14:15;4.10;99.90
39347;DHT22;26262;49.836;6.632;2024-01-07T05:16:41;4.00;99.90
39347;DHT22;26262;49.836;6.632;2024-01-07T05:19:06;3.90;99.90
39347;DHT22;26262;49.836;6.632;2024-01-07T05:21:31;3.90;99.90
39347;DHT22;26262;49.836;6.632;2024-01-07T05:23:57;4.20;99.90
39347;DHT22;26262;49.836;6.632;2024-01-07T05:26:22;3.90;99.90
39347;DHT22;26262;49.836;6.632;2024-01-07T05:28:48;3.90;99.90
39347;DHT22;26262;49.836;6.632;2024-01-07T05:31:17;3.80;99.90
39347;DHT22;26262;49.836;6.632;2024-01-07T05:33:43;3.70;99.90
39347;DHT22;26262;49.836;6.632;2024-01-07T05:36:08;3.70;99.90
39347;DHT22;26262;49.836;6.632;2024-01-07T05:38:33;3.90;99.90
39347;DHT22;26262;49.836;6.632;2024-01-07T05:40:59;3.90;99.90
39347;DHT22;26262;49.836;6.632;2024-01-07T05:43:24;3.80;99.90
39347;DHT22;26262;49.836;6.632;2024-01-07T05:45:50;4.00;99.90
39347;DHT22;26262;49.836;6.632;2024-01-07T05:48:15;4.10;99.90
39347;DHT22;26262;49.836;6.632;2024-01-07T05:50:40;4.10;99.90
39347;DHT22;26262;49.836;6.632;2024-01-07T05:53:06;4.00;99.90
39347;DHT22;26262;49.836;6.632;2024-01-07T05:55:31;3.70;99.90
39347;DHT22;26262;49.836;6.632;2024-01-07T05:57:57;3.90;99.90
39347;DHT22;26262;49.836;6.632;2024-01-07T06:00:23;4.00;99.90
39347;DHT22;26262;49.836;6.632;2024-01-07T06:02:48;4.00;99.90
39347;DHT22;26262;49.836;6.632;2024-01-07T06:05:14;4.00;99.90
39347;DHT22;26262;49.836;6.632;2024-01-07T06:07:40;3.90;99.90
39347;DHT22;26262;49.836;6.632;2024-01-07T06:10:05;4.00;99.90
39347;DHT22;26262;49.836;6.632;2024-01-07T06:12:31;4.10;99.90
39347;DHT22;26262;49.836;6.632;2024-01-07T06:14:57;4.10;99.90
39347;DHT22;26262;49.836;6.632;2024-01-07T06:17:22;4.10;99.90
39347;DHT22;26262;49.836;6.632;2024-01-07T06:19:48;4.10;99.90
39347;DHT22;26262;49.836;6.632;2024-01-07T06:22:13;4.10;99.90
39347;DHT22;26262;49.836;6.632;2024-01-07T06:24:38;4.10;99.90
39347;DHT22;26262;49.836;6.632;2024-01-07T06:27:04;4.20;99.90
39347;DHT22;26262;49.836;6.632;2024-01-07T06:29:29;4.10;99.90
39347;DHT22;26262;49.836;6.632;2024-01-07T06:31:55;4.00;99.90
39347;DHT22;26262;49.836;6.632;2024-01-07T06:34:20;4.00;99.90
39347;DHT22;26262;49.836;6.632;2024-01-07T06:36:46;3.90;99.90
39347;DHT22;26262;49.836;6.632;2024-01-07T06:39:11;3.80;99.90
39347;DHT22;26262;49.836;6.632;2024-01-07T06:41:37;3.60;99.90
39347;DHT22;26262;49.836;6.632;2024-01-07T06:44:03;3.80;99.90
39347;DHT22;26262;49.836;6.632;2024-01-07T06:46:29;3.80;99.90
39347;DHT22;26262;49.836;6.632;2024-01-07T06:48:54;3.70;99.90
39347;DHT22;26262;49.836;6.632;2024-01-07T06:51:19;3.60;99.90
39347;DHT22;26262;49.836;6.632;2024-01-07T06:53:45;3.60;99.90
39347;DHT22;26262;49.836;6.632;2024-01-07T06:56:10;3.70;99.90
39347;DHT22;26262;49.836;6.632;2024-01-07T06:58:36;3.80;99.90
39347;DHT22;26262;49.836;6.632;2024-01-07T07:01:01;3.80;99.90
39347;DHT22;26262;49.836;6.632;2024-01-07T07:03:27;3.70;99.90
39347;DHT22;26262;49.836;6.632;2024-01-07T07:05:53;3.60;99.90
39347;DHT22;26262;49.836;6.632;2024-01-07T07:08:18;3.80;99.90
39347;DHT22;26262;49.836;6.632;2024-01-07T07:10:44;4.00;99.90
39347;DHT22;26262;49.836;6.632;2024-01-07T07:13:10;3.90;99.90
39347;DHT22;26262;49.836;6.632;2024-01-07T07:15:35;4.00;99.90
39347;DHT22;26262;49.836;6.632;2024-01-07T07:18:01;4.00;99.90
39347;DHT22;26262;49.836;6.632;2024-01-07T07:20:26;4.00;99.90
39347;DHT22;26262;49.836;6.632;2024-01-07T07:22:52;3.80;99.90
39347;DHT22;26262;49.836;6.632;2024-01-07T07:25:17;3.90;99.90
39347;DHT22;26262;49.836;6.632;2024-01-07T07:27:43;3.90;99.90
39347;DHT22;26262;49.836;6.632;2024-01-07T07:30:09;3.70;99.90
39347;DHT22;26262;49.836;6.632;2024-01-07T07:32:34;3.70;99.90
39347;DHT22;26262;49.836;6.632;2024-01-07T07:35:00;3.80;99.90
39347;DHT22;26262;49.836;6.632;2024-01-07T07:37:26;3.80;99.90
39347;DHT22;26262;49.836;6.632;2024-01-07T07:39:51;3.90;99.90
39347;DHT22;26262;49.836;6.632;2024-01-07T07:42:17;3.80;99.90
39347;DHT22;26262;49.836;6.632;2024-01-07T07:44:42;3.60;99.90
39347;DHT22;26262;49.836;6.632;2024-01-07T07:47:08;3.90;99.90
39347;DHT22;26262;49.836;6.632;2024-01-07T07:49:37;3.90;99.90
39347;DHT22;26262;49.836;6.632;2024-01-07T07:52:02;4.20;99.90
39347;DHT22;26262;49.836;6.632;2024-01-07T07:54:28;4.10;99.90
39347;DHT22;26262;49.836;6.632;2024-01-07T07:56:53;4.20;99.90
39347;DHT22;26262;49.836;6.632;2024-01-07T07:59:18;4.20;99.90
39347;DHT22;26262;49.836;6.632;2024-01-07T08:01:45;4.20;99.90
39347;DHT22;26262;49.836;6.632;2024-01-07T08:04:10;4.20;99.90
39347;DHT22;26262;49.836;6.632;2024-01-07T08:06:36;4.20;99.90
39347;DHT22;26262;49.836;6.632;2024-01-07T08:09:01;4.10;99.90
39347;DHT22;26262;49.836;6.632;2024-01-07T08:11:27;4.30;99.90
39347;DHT22;26262;49.836;6.632;2024-01-07T08:13:54;4.00;99.90
39347;DHT22;26262;49.836;6.632;2024-01-07T08:16:20;3.80;99.90
39347;DHT22;26262;49.836;6.632;2024-01-07T08:18:46;3.70;99.90
39347;DHT22;26262;49.836;6.632;2024-01-07T08:21:11;3.80;99.90
39347;DHT22;26262;49.836;6.632;2024-01-07T08:23:37;3.80;99.90
39347;DHT22;26262;49.836;6.632;2024-01-07T08:26:02;3.90;99.90
39347;DHT22;26262;49.836;6.632;2024-01-07T08:28:28;4.10;99.90
39347;DHT22;26262;49.836;6.632;2024-01-07T08:30:53;4.20;99.90
39347;DHT22;26262;49.836;6.632;2024-01-07T08:33:19;4.40;99.90
39347;DHT22;26262;49.836;6.632;2024-01-07T08:35:44;4.10;99.90
39347;DHT22;26262;49.836;6.632;2024-01-07T08:38:10;4.10;99.90
39347;DHT22;26262;49.836;6.632;2024-01-07T08:40:35;4.30;99.90
39347;DHT22;26262;49.836;6.632;2024-01-07T08:43:01;4.40;99.90
39347;DHT22;26262;49.836;6.632;2024-01-07T08:45:27;4.30;99.90
39347;DHT22;26262;49.836;6.632;2024-01-07T08:47:52;4.20;99.90
39347;DHT22;26262;49.836;6.632;2024-01-07T08:50:18;4.10;99.90
39347;DHT22;26262;49.836;6.632;2024-01-07T08:52:43;4.10;99.90
39347;DHT22;26262;49.836;6.632;2024-01-07T08:55:08;4.00;99.90
39347;DHT22;26262;49.836;6.632;2024-01-07T08:57:36;4.10;99.90
39347;DHT22;26262;49.836;6.632;2024-01-07T09:00:02;4.20;99.90
39347;DHT22;26262;49.836;6.632;2024-01-07T09:02:27;4.10;99.90
39347;DHT22;26262;49.836;6.632;2024-01-07T09:04:53;4.20;99.90
39347;DHT22;26262;49.836;6.632;2024-01-07T09:07:18;4.40;99.90
39347;DHT22;26262;49.836;6.632;2024-01-07T09:09:44;4.50;99.90
39347;DHT22;26262;49.836;6.632;2024-01-07T09:12:10;4.40;99.90
39347;DHT22;26262;49.836;6.632;2024-01-07T09:14:36;4.30;99.90
39347;DHT22;26262;49.836;6.632;2024-01-07T09:17:02;4.40;99.90
39347;DHT22;26262;49.836;6.632;2024-01-07T09:19:28;4.30;99.90
39347;DHT22;26262;49.836;6.632;2024-01-07T09:21:53;4.20;99.90
39347;DHT22;26262;49.836;6.632;2024-01-07T09:24:18;4.40;99.90
39347;DHT22;26262;49.836;6.632;2024-01-07T09:26:44;4.40;99.90
39347;DHT22;26262;49.836;6.632;2024-01-07T09:29:09;4.30;99.90
39347;DHT22;26262;49.836;6.632;2024-01-07T09:31:35;4.40;99.90
39347;DHT22;26262;49.836;6.632;2024-01-07T09:34:01;4.50;99.90
39347;DHT22;26262;49.836;6.632;2024-01-07T09:36:27;4.50;99.90
39347;DHT22;26262;49.836;6.632;2024-01-07T09:38:52;4.50;99.90
39347;DHT22;26262;49.836;6.632;2024-01-07T09:41:19;4.40;99.90
39347;DHT22;26262;49.836;6.632;2024-01-07T09:43:44;4.30;99.90
39347;DHT22;26262;49.836;6.632;2024-01-07T09:46:10;4.30;99.90
39347;DHT22;26262;49.836;6.632;2024-01-07T09:48:35;4.40;99.90
39347;DHT22;26262;49.836;6.632;2024-01-07T09:51:01;4.50;99.90
39347;DHT22;26262;49.836;6.632;2024-01-07T09:53:28;4.40;99.90
39347;DHT22;26262;49.836;6.632;2024-01-07T09:58:41;4.20;99.90
39347;DHT22;26262;49.836;6.632;2024-01-07T10:01:07;4.20;99.90
39347;DHT22;26262;49.836;6.632;2024-01-07T10:03:33;4.20;99.90
39347;DHT22;26262;49.836;6.632;2024-01-07T10:05:58;4.20;99.90
39347;DHT22;26262;49.836;6.632;2024-01-07T10:08:24;4.20;99.90
39347;DHT22;26262;49.836;6.632;2024-01-07T10:10:49;4.20;99.90
39347;DHT22;26262;49.836;6.632;2024-01-07T10:13:15;4.30;99.90
39347;DHT22;26262;49.836;6.632;2024-01-07T10:15:40;4.20;99.90
39347;DHT22;26262;49.836;6.632;2024-01-07T10:18:06;4.10;99.90
39347;DHT22;26262;49.836;6.632;2024-01-07T10:20:32;4.20;99.90
39347;DHT22;26262;49.836;6.632;2024-01-07T10:22:59;4.20;99.90
39347;DHT22;26262;49.836;6.632;2024-01-07T10:25:24;4.20;99.90
39347;DHT22;26262;49.836;6.632;2024-01-07T10:27:49;4.20;99.90
39347;DHT22;26262;49.836;6.632;2024-01-07T10:30:15;4.30;99.90
39347;DHT22;26262;49.836;6.632;2024-01-07T10:32:41;4.40;99.90
39347;DHT22;26262;49.836;6.632;2024-01-07T10:35:07;4.30;99.90
39347;DHT22;26262;49.836;6.632;2024-01-07T10:37:35;4.40;99.90
39347;DHT22;26262;49.836;6.632;2024-01-07T10:40:00;4.40;99.90
39347;DHT22;26262;49.836;6.632;2024-01-07T10:42:31;4.40;99.90
39347;DHT22;26262;49.836;6.632;2024-01-07T10:44:58;4.50;99.90
39347;DHT22;26262;49.836;6.632;2024-01-07T10:47:23;4.30;99.90
39347;DHT22;26262;49.836;6.632;2024-01-07T10:49:52;4.40;99.90
39347;DHT22;26262;49.836;6.632;2024-01-07T10:52:18;4.50;99.90
39347;DHT22;26262;49.836;6.632;2024-01-07T10:54:44;4.60;99.90
39347;DHT22;26262;49.836;6.632;2024-01-07T10:59:56;4.50;99.90
39347;DHT22;26262;49.836;6.632;2024-01-07T11:02:22;4.50;99.90
39347;DHT22;26262;49.836;6.632;2024-01-07T11:04:52;4.50;99.90
39347;DHT22;26262;49.836;6.632;2024-01-07T11:10:16;4.40;99.90
39347;DHT22;26262;49.836;6.632;2024-01-07T11:12:39;4.40;99.90
39347;DHT22;26262;49.836;6.632;2024-01-07T11:15:05;4.40;99.90
39347;DHT22;26262;49.836;6.632;2024-01-07T11:20:02;4.30;99.90
39347;DHT22;26262;49.836;6.632;2024-01-07T11:22:29;4.20;99.90
39347;DHT22;26262;49.836;6.632;2024-01-07T11:24:55;4.10;99.90
39347;DHT22;26262;49.836;6.632;2024-01-07T11:27:24;4.00;99.90
39347;DHT22;26262;49.836;6.632;2024-01-07T11:30:07;4.10;99.90
39347;DHT22;26262;49.836;6.632;2024-01-07T11:32:34;4.00;99.90
39347;DHT22;26262;49.836;6.632;2024-01-07T11:35:00;4.00;99.90
39347;DHT22;26262;49.836;6.632;2024-01-07T11:37:25;3.90;99.90
39347;DHT22;26262;49.836;6.632;2024-01-07T11:39:53;3.90;99.90
39347;DHT22;26262;49.836;6.632;2024-01-07T11:42:20;4.00;99.90
39347;DHT22;26262;49.836;6.632;2024-01-07T11:44:51;4.00;99.90
39347;DHT22;26262;49.836;6.632;2024-01-07T11:47:17;4.00;99.90
39347;DHT22;26262;49.836;6.632;2024-01-07T11:49:42;4.00;99.90
39347;DHT22;26262;49.836;6.632;2024-01-07T11:52:08;3.90;99.90
39347;DHT22;26262;49.836;6.632;2024-01-07T11:54:36;3.90;99.90
39347;DHT22;26262;49.836;6.632;2024-01-07T11:57:01;3.80;99.90
39347;DHT22;26262;49.836;6.632;2024-01-07T11:59:28;3.70;99.90
39347;DHT22;26262;49.836;6.632;2024-01-07T12:01:54;3.80;99.90
39347;DHT22;26262;49.836;6.632;2024-01-07T12:04:20;3.90;99.90
39347;DHT22;26262;49.836;6.632;2024-01-07T12:06:45;3.90;99.90
39347;DHT22;26262;49.836;6.632;2024-01-07T12:09:12;3.80;99.90
39347;DHT22;26262;49.836;6.632;2024-01-07T12:11:37;3.90;99.90
39347;DHT22;26262;49.836;6.632;2024-01-07T12:14:03;3.90;99.90
39347;DHT22;26262;49.836;6.632;2024-01-07T12:16:29;3.90;99.90
39347;DHT22;26262;49.836;6.632;2024-01-07T12:18:54;4.10;99.90
39347;DHT22;26262;49.836;6.632;2024-01-07T12:21:20;4.10;99.90
39347;DHT22;26262;49.836;6.632;2024-01-07T12:23:50;4.00;99.90
39347;DHT22;26262;49.836;6.632;2024-01-07T12:26:16;4.00;99.90
39347;DHT22;26262;49.836;6.632;2024-01-07T12:28:42;3.90;99.90
39347;DHT22;26262;49.836;6.632;2024-01-07T12:31:07;3.90;99.90
39347;DHT22;26262;49.836;6.632;2024-01-07T12:33:33;4.00;99.90
39347;DHT22;26262;49.836;6.632;2024-01-07T12:35:59;4.00;99.90
39347;DHT22;26262;49.836;6.632;2024-01-07T12:38:24;4.10;99.90
39347;DHT22;26262;49.836;6.632;2024-01-07T12:40:50;4.10;99.90
39347;DHT22;26262;49.836;6.632;2024-01-07T12:43:16;4.10;99.90
39347;DHT22;26262;49.836;6.632;2024-01-07T12:45:42;4.20;99.90
39347;DHT22;26262;49.836;6.632;2024-01-07T12:48:07;4.10;99.90
39347;DHT22;26262;49.836;6.632;2024-01-07T12:50:32;4.00;99.90
39347;DHT22;26262;49.836;6.632;2024-01-07T12:52:58;4.00;99.90
39347;DHT22;26262;49.836;6.632;2024-01-07T12:55:24;4.10;99.90
39347;DHT22;26262;49.836;6.632;2024-01-07T12:57:50;4.10;99.90
39347;DHT22;26262;49.836;6.632;2024-01-07T13:00:16;4.20;99.90
39347;DHT22;26262;49.836;6.632;2024-01-07T13:02:41;4.20;99.90
39347;DHT22;26262;49.836;6.632;2024-01-07T13:05:07;4.20;99.90
39347;DHT22;26262;49.836;6.632;2024-01-07T13:07:33;4.20;99.90
39347;DHT22;26262;49.836;6.632;2024-01-07T13:09:58;4.10;99.90
39347;DHT22;26262;49.836;6.632;2024-01-07T13:12:24;4.10;99.90
39347;DHT22;26262;49.836;6.632;2024-01-07T13:14:49;4.10;99.90
39347;DHT22;26262;49.836;6.632;2024-01-07T13:17:15;4.10;99.90
39347;DHT22;26262;49.836;6.632;2024-01-07T13:19:40;4.10;99.90
39347;DHT22;26262;49.836;6.632;2024-01-07T13:22:07;4.20;99.90
39347;DHT22;26262;49.836;6.632;2024-01-07T13:24:32;4.40;99.90
39347;DHT22;26262;49.836;6.632;2024-01-07T13:26:57;4.20;99.90
39347;DHT22;26262;49.836;6.632;2024-01-07T13:29:23;4.20;99.90
39347;DHT22;26262;49.836;6.632;2024-01-07T13:31:49;4.30;99.90
39347;DHT22;26262;49.836;6.632;2024-01-07T13:34:15;4.20;99.90
39347;DHT22;26262;49.836;6.632;2024-01-07T13:36:40;4.10;99.90
39347;DHT22;26262;49.836;6.632;2024-01-07T13:39:07;4.20;99.90
39347;DHT22;26262;49.836;6.632;2024-01-07T13:41:33;4.40;99.90
39347;DHT22;26262;49.836;6.632;2024-01-07T13:43:59;4.40;99.90
39347;DHT22;26262;49.836;6.632;2024-01-07T13:46:24;4.10;99.90
39347;DHT22;26262;49.836;6.632;2024-01-07T13:48:50;4.20;99.90
39347;DHT22;26262;49.836;6.632;2024-01-07T13:51:20;4.10;99.90
39347;DHT22;26262;49.836;6.632;2024-01-07T13:53:45;4.00;99.90
39347;DHT22;26262;49.836;6.632;2024-01-07T13:56:13;4.20;99.90
39347;DHT22;26262;49.836;6.632;2024-01-07T13:58:39;4.20;99.90
39347;DHT22;26262;49.836;6.632;2024-01-07T14:01:04;4.20;99.90
39347;DHT22;26262;49.836;6.632;2024-01-07T14:03:32;4.30;99.90
39347;DHT22;26262;49.836;6.632;2024-01-07T14:05:58;4.40;99.90
39347;DHT22;26262;49.836;6.632;2024-01-07T14:08:24;4.40;99.90
39347;DHT22;26262;49.836;6.632;2024-01-07T14:10:49;4.30;99.90
39347;DHT22;26262;49.836;6.632;2024-01-07T14:13:15;4.10;99.90
39347;DHT22;26262;49.836;6.632;2024-01-07T14:15:41;4.20;99.90
39347;DHT22;26262;49.836;6.632;2024-01-07T14:18:07;4.10;99.90
39347;DHT22;26262;49.836;6.632;2024-01-07T14:20:35;4.20;99.90
39347;DHT22;26262;49.836;6.632;2024-01-07T14:23:00;4.20;99.90
39347;DHT22;26262;49.836;6.632;2024-01-07T14:25:26;4.20;99.90
39347;DHT22;26262;49.836;6.632;2024-01-07T14:27:51;4.30;99.90
39347;DHT22;26262;49.836;6.632;2024-01-07T14:30:17;4.20;99.90
39347;DHT22;26262;49.836;6.632;2024-01-07T14:32:42;4.10;99.90
39347;DHT22;26262;49.836;6.632;2024-01-07T14:35:10;4.10;99.90
39347;DHT22;26262;49.836;6.632;2024-01-07T14:37:36;4.10;99.90
39347;DHT22;26262;49.836;6.632;2024-01-07T14:40:02;4.00;99.90
39347;DHT22;26262;49.836;6.632;2024-01-07T14:42:29;4.00;99.90
39347;DHT22;26262;49.836;6.632;2024-01-07T14:44:55;4.10;99.90
39347;DHT22;26262;49.836;6.632;2024-01-07T14:47:21;4.00;99.90
39347;DHT22;26262;49.836;6.632;2024-01-07T14:49:47;4.00;99.90
39347;DHT22;26262;49.836;6.632;2024-01-07T14:52:12;4.10;99.90
39347;DHT22;26262;49.836;6.632;2024-01-07T14:54:38;3.90;99.90
39347;DHT22;26262;49.836;6.632;2024-01-07T14:57:03;3.80;99.90
39347;DHT22;26262;49.836;6.632;2024-01-07T14:59:29;3.90;99.90
39347;DHT22;26262;49.836;6.632;2024-01-07T15:01:55;4.00;99.90
39347;DHT22;26262;49.836;6.632;2024-01-07T15:04:20;3.90;99.90
39347;DHT22;26262;49.836;6.632;2024-01-07T15:06:46;3.80;99.90
39347;DHT22;26262;49.836;6.632;2024-01-07T15:09:13;3.70;99.90
39347;DHT22;26262;49.836;6.632;2024-01-07T15:11:40;3.70;99.90
39347;DHT22;26262;49.836;6.632;2024-01-07T15:14:09;3.80;99.90
39347;DHT22;26262;49.836;6.632;2024-01-07T15:16:35;3.90;99.90
39347;DHT22;26262;49.836;6.632;2024-01-07T15:19:03;3.90;99.90
39347;DHT22;26262;49.836;6.632;2024-01-07T15:21:29;3.90;99.90
39347;DHT22;26262;49.836;6.632;2024-01-07T15:23:54;3.90;99.90
39347;DHT22;26262;49.836;6.632;2024-01-07T15:26:20;3.80;99.90
39347;DHT22;26262;49.836;6.632;2024-01-07T15:28:46;3.60;99.90
39347;DHT22;26262;49.836;6.632;2024-01-07T15:31:11;3.60;99.90
39347;DHT22;26262;49.836;6.632;2024-01-07T15:33:37;3.60;99.90
39347;DHT22;26262;49.836;6.632;2024-01-07T15:36:02;3.60;99.90
39347;DHT22;26262;49.836;6.632;2024-01-07T15:38:28;3.60;99.90
39347;DHT22;26262;49.836;6.632;2024-01-07T15:40:54;3.50;99.90
39347;DHT22;26262;49.836;6.632;2024-01-07T15:43:19;3.50;99.90
39347;DHT22;26262;49.836;6.632;2024-01-07T15:45:45;3.50;99.90
39347;DHT22;26262;49.836;6.632;2024-01-07T15:48:10;3.30;99.90